sensor_id;sensor_type;location;lat;lon;timestamp;P1;durP1;ratioP1;P2;durP2;ratioP2
3637;SDS011;1835;50.068;8.154;2022-11-11T00:01:59;12.57;;;6.70;;
3637;SDS011;1835;50.068;8.154;2022-11-11T00:04:27;15.00;;;6.57;;
3637;SDS011;1835;50.068;8.154;2022-11-11T00:06:55;15.53;;;6.80;;
3637;SDS011;1835;50.068;8.154;2022-11-11T00:09:23;15.40;;;6.37;;
3637;SDS011;1835;50.068;8.154;2022-11-11T00:11:52;8.87;;;5.60;;
3637;SDS011;1835;50.068;8.154;2022-11-11T00:14:20;16.43;;;6.50;;
3637;SDS011;1835;50.068;8.154;2022-11-11T00:16:48;16.70;;;6.00;;
3637;SDS011;1835;50.068;8.154;2022-11-11T00:19:34;13.80;;;6.80;;
3637;SDS011;1835;50.068;8.154;2022-11-11T00:22:20;25.70;;;8.37;;
3637;SDS011;1835;50.068;8.154;2022-11-11T00:25:06;20.53;;;6.93;;
3637;SDS011;1835;50.068;8.154;2022-11-11T00:27:37;17.10;;;6.30;;
3637;SDS011;1835;50.068;8.154;2022-11-11T00:30:06;13.23;;;5.80;;
3637;SDS011;1835;50.068;8.154;2022-11-11T00:32:36;15.83;;;6.70;;
3637;SDS011;1835;50.068;8.154;2022-11-11T00:35:04;16.57;;;7.43;;
3637;SDS011;1835;50.068;8.154;2022-11-11T00:37:50;11.93;;;6.20;;
3637;SDS011;1835;50.068;8.154;2022-11-11T00:40:18;24.43;;;6.50;;
3637;SDS011;1835;50.068;8.154;2022-11-11T00:42:47;22.30;;;7.90;;
3637;SDS011;1835;50.068;8.154;2022-11-11T00:45:15;13.07;;;6.53;;
3637;SDS011;1835;50.068;8.154;2022-11-11T00:47:43;11.50;;;5.67;;
3637;SDS011;1835;50.068;8.154;2022-11-11T00:50:29;16.80;;;5.80;;
3637;SDS011;1835;50.068;8.154;2022-11-11T00:53:15;17.57;;;6.63;;
3637;SDS011;1835;50.068;8.154;2022-11-11T00:55:51;18.60;;;7.07;;
3637;SDS011;1835;50.068;8.154;2022-11-11T00:58:21;17.37;;;6.67;;
3637;SDS011;1835;50.068;8.154;2022-11-11T01:00:50;16.03;;;6.33;;
3637;SDS011;1835;50.068;8.154;2022-11-11T01:03:20;22.33;;;6.07;;
3637;SDS011;1835;50.068;8.154;2022-11-11T01:05:49;21.93;;;5.80;;
3637;SDS011;1835;50.068;8.154;2022-11-11T01:08:17;16.30;;;7.30;;
3637;SDS011;1835;50.068;8.154;2022-11-11T01:10:45;18.93;;;5.03;;
3637;SDS011;1835;50.068;8.154;2022-11-11T01:13:15;16.93;;;5.57;;
3637;SDS011;1835;50.068;8.154;2022-11-11T01:15:48;18.23;;;5.63;;
3637;SDS011;1835;50.068;8.154;2022-11-11T01:18:20;12.27;;;6.37;;
3637;SDS011;1835;50.068;8.154;2022-11-11T01:20:57;24.60;;;5.40;;
3637;SDS011;1835;50.068;8.154;2022-11-11T01:23:27;14.90;;;7.00;;
3637;SDS011;1835;50.068;8.154;2022-11-11T01:26:00;22.60;;;6.80;;
3637;SDS011;1835;50.068;8.154;2022-11-11T01:28:29;10.50;;;5.37;;
3637;SDS011;1835;50.068;8.154;2022-11-11T01:31:03;11.50;;;5.27;;
3637;SDS011;1835;50.068;8.154;2022-11-11T01:33:34;14.63;;;6.63;;
3637;SDS011;1835;50.068;8.154;2022-11-11T01:40:02;25.20;;;6.80;;
3637;SDS011;1835;50.068;8.154;2022-11-11T01:42:44;26.63;;;8.17;;
3637;SDS011;1835;50.068;8.154;2022-11-11T01:48:17;26.80;;;8.33;;
3637;SDS011;1835;50.068;8.154;2022-11-11T01:51:10;20.23;;;6.77;;
3637;SDS011;1835;50.068;8.154;2022-11-11T01:53:47;21.37;;;7.63;;
3637;SDS011;1835;50.068;8.154;2022-11-11T01:56:20;28.80;;;9.70;;
3637;SDS011;1835;50.068;8.154;2022-11-11T01:58:49;32.43;;;8.20;;
3637;SDS011;1835;50.068;8.154;2022-11-11T02:01:22;36.20;;;10.20;;
3637;SDS011;1835;50.068;8.154;2022-11-11T02:03:52;42.07;;;9.60;;
3637;SDS011;1835;50.068;8.154;2022-11-11T02:06:40;67.80;;;9.87;;
3637;SDS011;1835;50.068;8.154;2022-11-11T02:09:09;45.17;;;11.07;;
3637;SDS011;1835;50.068;8.154;2022-11-11T02:11:38;22.00;;;8.67;;
3637;SDS011;1835;50.068;8.154;2022-11-11T02:14:25;31.20;;;8.60;;
3637;SDS011;1835;50.068;8.154;2022-11-11T02:17:03;23.93;;;8.70;;
3637;SDS011;1835;50.068;8.154;2022-11-11T02:19:39;18.70;;;7.40;;
3637;SDS011;1835;50.068;8.154;2022-11-11T02:22:15;23.20;;;7.63;;
3637;SDS011;1835;50.068;8.154;2022-11-11T02:24:52;16.70;;;6.93;;
3637;SDS011;1835;50.068;8.154;2022-11-11T02:27:22;13.80;;;6.80;;
3637;SDS011;1835;50.068;8.154;2022-11-11T02:29:54;16.17;;;7.20;;
3637;SDS011;1835;50.068;8.154;2022-11-11T02:32:24;16.50;;;7.53;;
3637;SDS011;1835;50.068;8.154;2022-11-11T02:34:52;20.00;;;7.27;;
3637;SDS011;1835;50.068;8.154;2022-11-11T02:37:21;10.37;;;5.73;;
3637;SDS011;1835;50.068;8.154;2022-11-11T02:39:56;13.10;;;6.67;;
3637;SDS011;1835;50.068;8.154;2022-11-11T02:42:30;11.13;;;5.40;;
3637;SDS011;1835;50.068;8.154;2022-11-11T02:45:01;16.60;;;6.80;;
3637;SDS011;1835;50.068;8.154;2022-11-11T02:47:29;13.10;;;6.40;;
3637;SDS011;1835;50.068;8.154;2022-11-11T02:49:58;13.37;;;6.27;;
3637;SDS011;1835;50.068;8.154;2022-11-11T02:52:26;13.87;;;5.77;;
3637;SDS011;1835;50.068;8.154;2022-11-11T02:54:56;11.20;;;4.77;;
3637;SDS011;1835;50.068;8.154;2022-11-11T02:57:24;8.80;;;4.90;;
3637;SDS011;1835;50.068;8.154;2022-11-11T02:59:52;10.43;;;5.50;;
3637;SDS011;1835;50.068;8.154;2022-11-11T03:02:22;11.20;;;5.90;;
3637;SDS011;1835;50.068;8.154;2022-11-11T03:04:52;18.23;;;4.80;;
3637;SDS011;1835;50.068;8.154;2022-11-11T03:07:21;10.60;;;5.40;;
3637;SDS011;1835;50.068;8.154;2022-11-11T03:09:50;9.67;;;4.80;;
3637;SDS011;1835;50.068;8.154;2022-11-11T03:12:19;9.93;;;4.00;;
3637;SDS011;1835;50.068;8.154;2022-11-11T03:14:48;11.53;;;5.00;;
3637;SDS011;1835;50.068;8.154;2022-11-11T03:17:16;8.60;;;5.00;;
3637;SDS011;1835;50.068;8.154;2022-11-11T03:20:01;9.93;;;4.83;;
3637;SDS011;1835;50.068;8.154;2022-11-11T03:22:57;8.03;;;3.57;;
3637;SDS011;1835;50.068;8.154;2022-11-11T03:25:27;8.57;;;3.93;;
3637;SDS011;1835;50.068;8.154;2022-11-11T03:28:06;7.47;;;4.13;;
3637;SDS011;1835;50.068;8.154;2022-11-11T03:30:36;13.93;;;4.80;;
3637;SDS011;1835;50.068;8.154;2022-11-11T03:33:05;10.30;;;4.73;;
3637;SDS011;1835;50.068;8.154;2022-11-11T03:35:33;7.07;;;3.47;;
3637;SDS011;1835;50.068;8.154;2022-11-11T03:38:02;11.37;;;5.07;;
3637;SDS011;1835;50.068;8.154;2022-11-11T03:40:50;7.80;;;3.83;;
3637;SDS011;1835;50.068;8.154;2022-11-11T03:43:23;14.47;;;5.50;;
3637;SDS011;1835;50.068;8.154;2022-11-11T03:45:53;24.10;;;4.27;;
3637;SDS011;1835;50.068;8.154;2022-11-11T03:48:23;6.90;;;4.13;;
3637;SDS011;1835;50.068;8.154;2022-11-11T03:50:54;7.83;;;4.03;;
3637;SDS011;1835;50.068;8.154;2022-11-11T03:53:22;5.67;;;3.73;;
3637;SDS011;1835;50.068;8.154;2022-11-11T03:55:51;8.40;;;4.07;;
3637;SDS011;1835;50.068;8.154;2022-11-11T03:58:19;4.80;;;3.93;;
3637;SDS011;1835;50.068;8.154;2022-11-11T04:00:50;11.23;;;4.13;;
3637;SDS011;1835;50.068;8.154;2022-11-11T04:03:19;5.47;;;3.30;;
3637;SDS011;1835;50.068;8.154;2022-11-11T04:06:05;6.67;;;3.47;;
3637;SDS011;1835;50.068;8.154;2022-11-11T04:08:53;7.10;;;3.13;;
3637;SDS011;1835;50.068;8.154;2022-11-11T04:11:39;9.20;;;3.57;;
3637;SDS011;1835;50.068;8.154;2022-11-11T04:14:09;7.73;;;3.80;;
3637;SDS011;1835;50.068;8.154;2022-11-11T04:16:58;7.27;;;4.37;;
3637;SDS011;1835;50.068;8.154;2022-11-11T04:19:26;16.50;;;3.60;;
3637;SDS011;1835;50.068;8.154;2022-11-11T04:22:11;3.00;;;2.20;;
3637;SDS011;1835;50.068;8.154;2022-11-11T04:24:39;12.13;;;3.47;;
3637;SDS011;1835;50.068;8.154;2022-11-11T04:27:25;10.83;;;3.80;;
3637;SDS011;1835;50.068;8.154;2022-11-11T04:29:53;4.80;;;2.97;;
3637;SDS011;1835;50.068;8.154;2022-11-11T04:32:21;3.73;;;3.40;;
3637;SDS011;1835;50.068;8.154;2022-11-11T04:35:06;5.80;;;3.17;;
3637;SDS011;1835;50.068;8.154;2022-11-11T04:37:36;11.53;;;3.33;;
3637;SDS011;1835;50.068;8.154;2022-11-11T04:40:12;7.00;;;4.13;;
3637;SDS011;1835;50.068;8.154;2022-11-11T04:42:58;5.93;;;3.13;;
3637;SDS011;1835;50.068;8.154;2022-11-11T04:45:26;13.80;;;3.50;;
3637;SDS011;1835;50.068;8.154;2022-11-11T04:47:56;4.43;;;3.10;;
3637;SDS011;1835;50.068;8.154;2022-11-11T04:50:26;8.77;;;3.57;;
3637;SDS011;1835;50.068;8.154;2022-11-11T04:52:56;11.03;;;4.77;;
3637;SDS011;1835;50.068;8.154;2022-11-11T04:55:25;4.97;;;3.00;;
3637;SDS011;1835;50.068;8.154;2022-11-11T04:58:11;12.33;;;2.97;;
3637;SDS011;1835;50.068;8.154;2022-11-11T05:00:39;10.80;;;3.60;;
3637;SDS011;1835;50.068;8.154;2022-11-11T05:03:10;9.10;;;4.30;;
3637;SDS011;1835;50.068;8.154;2022-11-11T05:05:41;7.03;;;2.93;;
3637;SDS011;1835;50.068;8.154;2022-11-11T05:08:28;5.43;;;3.60;;
3637;SDS011;1835;50.068;8.154;2022-11-11T05:11:17;3.43;;;3.13;;
3637;SDS011;1835;50.068;8.154;2022-11-11T05:13:46;10.57;;;3.07;;
3637;SDS011;1835;50.068;8.154;2022-11-11T05:16:32;5.83;;;2.57;;
3637;SDS011;1835;50.068;8.154;2022-11-11T05:19:23;9.43;;;3.33;;
3637;SDS011;1835;50.068;8.154;2022-11-11T05:22:10;11.30;;;3.20;;
3637;SDS011;1835;50.068;8.154;2022-11-11T05:24:43;5.93;;;2.90;;
3637;SDS011;1835;50.068;8.154;2022-11-11T05:27:28;5.50;;;3.20;;
3637;SDS011;1835;50.068;8.154;2022-11-11T05:29:56;6.00;;;3.23;;
3637;SDS011;1835;50.068;8.154;2022-11-11T05:32:25;6.60;;;3.10;;
3637;SDS011;1835;50.068;8.154;2022-11-11T05:34:54;11.13;;;3.57;;
3637;SDS011;1835;50.068;8.154;2022-11-11T05:37:22;12.47;;;3.00;;
3637;SDS011;1835;50.068;8.154;2022-11-11T05:39:50;5.23;;;3.47;;
3637;SDS011;1835;50.068;8.154;2022-11-11T05:42:18;7.20;;;2.80;;
3637;SDS011;1835;50.068;8.154;2022-11-11T05:44:46;7.10;;;2.57;;
3637;SDS011;1835;50.068;8.154;2022-11-11T05:47:15;4.17;;;2.83;;
3637;SDS011;1835;50.068;8.154;2022-11-11T05:49:43;4.33;;;2.97;;
3637;SDS011;1835;50.068;8.154;2022-11-11T05:52:13;8.23;;;3.17;;
3637;SDS011;1835;50.068;8.154;2022-11-11T05:54:43;6.50;;;3.47;;
3637;SDS011;1835;50.068;8.154;2022-11-11T05:57:11;9.63;;;4.63;;
3637;SDS011;1835;50.068;8.154;2022-11-11T05:59:39;4.13;;;2.60;;
3637;SDS011;1835;50.068;8.154;2022-11-11T06:02:07;3.70;;;2.27;;
3637;SDS011;1835;50.068;8.154;2022-11-11T06:04:36;4.13;;;2.60;;
3637;SDS011;1835;50.068;8.154;2022-11-11T06:07:04;4.90;;;3.00;;
3637;SDS011;1835;50.068;8.154;2022-11-11T06:09:33;2.53;;;2.30;;
3637;SDS011;1835;50.068;8.154;2022-11-11T06:12:01;9.47;;;3.13;;
3637;SDS011;1835;50.068;8.154;2022-11-11T06:14:29;7.63;;;2.83;;
3637;SDS011;1835;50.068;8.154;2022-11-11T06:16:57;3.53;;;2.80;;
3637;SDS011;1835;50.068;8.154;2022-11-11T06:19:25;8.03;;;3.17;;
3637;SDS011;1835;50.068;8.154;2022-11-11T06:21:53;8.20;;;2.80;;
3637;SDS011;1835;50.068;8.154;2022-11-11T06:24:26;5.80;;;3.50;;
3637;SDS011;1835;50.068;8.154;2022-11-11T06:26:55;7.53;;;3.43;;
3637;SDS011;1835;50.068;8.154;2022-11-11T06:29:23;4.53;;;3.57;;
3637;SDS011;1835;50.068;8.154;2022-11-11T06:31:51;6.80;;;4.20;;
3637;SDS011;1835;50.068;8.154;2022-11-11T06:34:19;5.37;;;2.60;;
3637;SDS011;1835;50.068;8.154;2022-11-11T06:36:47;10.07;;;3.67;;
3637;SDS011;1835;50.068;8.154;2022-11-11T06:39:15;6.77;;;4.30;;
3637;SDS011;1835;50.068;8.154;2022-11-11T06:41:43;7.80;;;3.93;;
3637;SDS011;1835;50.068;8.154;2022-11-11T06:44:12;7.60;;;3.53;;
3637;SDS011;1835;50.068;8.154;2022-11-11T06:46:40;7.40;;;3.30;;
3637;SDS011;1835;50.068;8.154;2022-11-11T06:49:08;7.77;;;3.30;;
3637;SDS011;1835;50.068;8.154;2022-11-11T06:51:37;7.13;;;3.67;;
3637;SDS011;1835;50.068;8.154;2022-11-11T06:54:05;7.43;;;4.03;;
3637;SDS011;1835;50.068;8.154;2022-11-11T06:56:33;21.07;;;4.07;;
3637;SDS011;1835;50.068;8.154;2022-11-11T06:59:01;8.53;;;4.13;;
3637;SDS011;1835;50.068;8.154;2022-11-11T07:01:31;9.70;;;4.03;;
3637;SDS011;1835;50.068;8.154;2022-11-11T07:03:59;11.63;;;4.00;;
3637;SDS011;1835;50.068;8.154;2022-11-11T07:06:27;15.07;;;5.07;;
3637;SDS011;1835;50.068;8.154;2022-11-11T07:08:58;5.70;;;3.67;;
3637;SDS011;1835;50.068;8.154;2022-11-11T07:11:26;7.87;;;4.10;;
3637;SDS011;1835;50.068;8.154;2022-11-11T07:13:54;5.70;;;3.57;;
3637;SDS011;1835;50.068;8.154;2022-11-11T07:16:22;5.47;;;3.53;;
3637;SDS011;1835;50.068;8.154;2022-11-11T07:18:52;13.40;;;4.30;;
3637;SDS011;1835;50.068;8.154;2022-11-11T07:21:20;11.43;;;4.20;;
3637;SDS011;1835;50.068;8.154;2022-11-11T07:23:48;12.30;;;4.30;;
3637;SDS011;1835;50.068;8.154;2022-11-11T07:26:16;14.23;;;4.37;;
3637;SDS011;1835;50.068;8.154;2022-11-11T07:28:44;7.43;;;3.20;;
3637;SDS011;1835;50.068;8.154;2022-11-11T07:31:12;8.83;;;4.00;;
3637;SDS011;1835;50.068;8.154;2022-11-11T07:33:40;6.70;;;3.57;;
3637;SDS011;1835;50.068;8.154;2022-11-11T07:36:09;9.40;;;3.67;;
3637;SDS011;1835;50.068;8.154;2022-11-11T07:38:37;5.50;;;3.70;;
3637;SDS011;1835;50.068;8.154;2022-11-11T07:41:05;5.23;;;3.80;;
3637;SDS011;1835;50.068;8.154;2022-11-11T07:43:33;11.00;;;4.13;;
3637;SDS011;1835;50.068;8.154;2022-11-11T07:46:01;9.37;;;3.73;;
3637;SDS011;1835;50.068;8.154;2022-11-11T07:48:29;10.43;;;3.97;;
3637;SDS011;1835;50.068;8.154;2022-11-11T07:50:57;8.00;;;4.00;;
3637;SDS011;1835;50.068;8.154;2022-11-11T07:53:27;9.10;;;3.83;;
3637;SDS011;1835;50.068;8.154;2022-11-11T07:55:55;6.65;;;3.60;;
3637;SDS011;1835;50.068;8.154;2022-11-11T07:58:23;10.50;;;3.97;;
3637;SDS011;1835;50.068;8.154;2022-11-11T08:00:51;8.77;;;3.83;;
3637;SDS011;1835;50.068;8.154;2022-11-11T08:03:19;7.37;;;3.20;;
3637;SDS011;1835;50.068;8.154;2022-11-11T08:05:48;4.20;;;2.77;;
3637;SDS011;1835;50.068;8.154;2022-11-11T08:08:16;7.77;;;4.10;;
3637;SDS011;1835;50.068;8.154;2022-11-11T08:10:53;16.47;;;4.30;;
3637;SDS011;1835;50.068;8.154;2022-11-11T08:13:22;4.13;;;2.60;;
3637;SDS011;1835;50.068;8.154;2022-11-11T08:16:09;21.10;;;4.23;;
3637;SDS011;1835;50.068;8.154;2022-11-11T08:18:38;3.03;;;2.37;;
3637;SDS011;1835;50.068;8.154;2022-11-11T08:21:07;9.00;;;3.57;;
3637;SDS011;1835;50.068;8.154;2022-11-11T08:23:35;5.60;;;3.03;;
3637;SDS011;1835;50.068;8.154;2022-11-11T08:26:24;8.33;;;3.20;;
3637;SDS011;1835;50.068;8.154;2022-11-11T08:28:55;7.77;;;3.47;;
3637;SDS011;1835;50.068;8.154;2022-11-11T08:31:23;6.40;;;2.90;;
3637;SDS011;1835;50.068;8.154;2022-11-11T08:33:51;5.33;;;3.73;;
3637;SDS011;1835;50.068;8.154;2022-11-11T08:36:19;15.33;;;2.80;;
3637;SDS011;1835;50.068;8.154;2022-11-11T08:38:48;6.00;;;3.53;;
3637;SDS011;1835;50.068;8.154;2022-11-11T08:41:17;7.83;;;4.07;;
3637;SDS011;1835;50.068;8.154;2022-11-11T08:43:48;4.67;;;2.93;;
3637;SDS011;1835;50.068;8.154;2022-11-11T08:46:19;3.00;;;2.63;;
3637;SDS011;1835;50.068;8.154;2022-11-11T08:48:47;5.80;;;3.13;;
3637;SDS011;1835;50.068;8.154;2022-11-11T08:51:15;6.27;;;3.30;;
3637;SDS011;1835;50.068;8.154;2022-11-11T08:53:44;10.20;;;3.10;;
3637;SDS011;1835;50.068;8.154;2022-11-11T08:56:12;14.20;;;3.30;;
3637;SDS011;1835;50.068;8.154;2022-11-11T08:58:40;89.40;;;5.33;;
3637;SDS011;1835;50.068;8.154;2022-11-11T09:01:12;40.57;;;3.97;;
3637;SDS011;1835;50.068;8.154;2022-11-11T09:03:41;52.40;;;6.00;;
3637;SDS011;1835;50.068;8.154;2022-11-11T09:06:11;173.37;;;10.20;;
3637;SDS011;1835;50.068;8.154;2022-11-11T09:08:40;95.07;;;7.43;;
3637;SDS011;1835;50.068;8.154;2022-11-11T09:11:09;224.70;;;11.87;;
3637;SDS011;1835;50.068;8.154;2022-11-11T09:13:37;201.47;;;11.00;;
3637;SDS011;1835;50.068;8.154;2022-11-11T09:16:07;319.10;;;13.10;;
3637;SDS011;1835;50.068;8.154;2022-11-11T09:18:37;157.27;;;10.10;;
3637;SDS011;1835;50.068;8.154;2022-11-11T09:21:05;42.93;;;6.97;;
3637;SDS011;1835;50.068;8.154;2022-11-11T09:23:34;89.17;;;7.47;;
3637;SDS011;1835;50.068;8.154;2022-11-11T09:26:02;36.10;;;6.93;;
3637;SDS011;1835;50.068;8.154;2022-11-11T09:28:32;100.50;;;8.27;;
3637;SDS011;1835;50.068;8.154;2022-11-11T09:31:01;145.90;;;7.70;;
3637;SDS011;1835;50.068;8.154;2022-11-11T09:33:50;49.10;;;5.40;;
3637;SDS011;1835;50.068;8.154;2022-11-11T09:36:19;106.30;;;9.30;;
3637;SDS011;1835;50.068;8.154;2022-11-11T09:38:47;25.27;;;5.90;;
3637;SDS011;1835;50.068;8.154;2022-11-11T09:41:17;47.33;;;6.73;;
3637;SDS011;1835;50.068;8.154;2022-11-11T09:43:52;62.83;;;6.50;;
3637;SDS011;1835;50.068;8.154;2022-11-11T09:46:28;34.63;;;5.07;;
3637;SDS011;1835;50.068;8.154;2022-11-11T09:49:14;33.77;;;5.60;;
3637;SDS011;1835;50.068;8.154;2022-11-11T09:52:07;13.43;;;4.57;;
3637;SDS011;1835;50.068;8.154;2022-11-11T09:54:43;26.27;;;5.47;;
3637;SDS011;1835;50.068;8.154;2022-11-11T09:57:18;13.20;;;4.37;;
3637;SDS011;1835;50.068;8.154;2022-11-11T09:59:54;70.13;;;6.43;;
3637;SDS011;1835;50.068;8.154;2022-11-11T10:02:28;20.67;;;6.07;;
3637;SDS011;1835;50.068;8.154;2022-11-11T10:05:05;23.13;;;4.90;;
3637;SDS011;1835;50.068;8.154;2022-11-11T10:07:38;14.57;;;5.30;;
3637;SDS011;1835;50.068;8.154;2022-11-11T10:10:20;17.30;;;5.20;;
3637;SDS011;1835;50.068;8.154;2022-11-11T10:12:56;20.47;;;5.40;;
3637;SDS011;1835;50.068;8.154;2022-11-11T10:15:26;79.93;;;7.20;;
3637;SDS011;1835;50.068;8.154;2022-11-11T10:18:15;11.87;;;4.57;;
3637;SDS011;1835;50.068;8.154;2022-11-11T10:20:59;10.27;;;4.37;;
3637;SDS011;1835;50.068;8.154;2022-11-11T10:23:32;11.63;;;3.80;;
3637;SDS011;1835;50.068;8.154;2022-11-11T10:26:06;21.37;;;4.57;;
3637;SDS011;1835;50.068;8.154;2022-11-11T10:28:42;23.57;;;4.90;;
3637;SDS011;1835;50.068;8.154;2022-11-11T10:31:12;5.67;;;3.50;;
3637;SDS011;1835;50.068;8.154;2022-11-11T10:33:45;12.03;;;4.80;;
3637;SDS011;1835;50.068;8.154;2022-11-11T10:36:19;14.57;;;3.60;;
3637;SDS011;1835;50.068;8.154;2022-11-11T10:38:51;6.10;;;4.17;;
3637;SDS011;1835;50.068;8.154;2022-11-11T10:41:25;12.63;;;3.60;;
3637;SDS011;1835;50.068;8.154;2022-11-11T10:44:00;12.27;;;4.63;;
3637;SDS011;1835;50.068;8.154;2022-11-11T10:46:28;14.33;;;5.00;;
3637;SDS011;1835;50.068;8.154;2022-11-11T10:49:07;7.17;;;4.63;;
3637;SDS011;1835;50.068;8.154;2022-11-11T10:51:41;7.23;;;4.80;;
3637;SDS011;1835;50.068;8.154;2022-11-11T10:54:14;5.97;;;4.03;;
3637;SDS011;1835;50.068;8.154;2022-11-11T10:56:47;10.43;;;4.20;;
3637;SDS011;1835;50.068;8.154;2022-11-11T10:59:24;8.17;;;5.13;;
3637;SDS011;1835;50.068;8.154;2022-11-11T11:02:00;6.33;;;4.90;;
3637;SDS011;1835;50.068;8.154;2022-11-11T11:04:39;7.70;;;4.03;;
3637;SDS011;1835;50.068;8.154;2022-11-11T11:07:14;8.13;;;4.57;;
3637;SDS011;1835;50.068;8.154;2022-11-11T11:09:49;6.30;;;3.77;;
3637;SDS011;1835;50.068;8.154;2022-11-11T11:12:25;6.43;;;4.90;;
3637;SDS011;1835;50.068;8.154;2022-11-11T11:15:02;9.30;;;4.50;;
3637;SDS011;1835;50.068;8.154;2022-11-11T11:17:35;8.20;;;4.40;;
3637;SDS011;1835;50.068;8.154;2022-11-11T11:20:10;8.37;;;4.50;;
3637;SDS011;1835;50.068;8.154;2022-11-11T11:22:45;10.27;;;4.73;;
3637;SDS011;1835;50.068;8.154;2022-11-11T11:25:17;7.50;;;3.73;;
3637;SDS011;1835;50.068;8.154;2022-11-11T11:27:46;8.00;;;4.10;;
3637;SDS011;1835;50.068;8.154;2022-11-11T11:30:19;4.73;;;3.93;;
3637;SDS011;1835;50.068;8.154;2022-11-11T11:32:55;9.40;;;4.27;;
3637;SDS011;1835;50.068;8.154;2022-11-11T11:35:28;11.30;;;4.70;;
3637;SDS011;1835;50.068;8.154;2022-11-11T11:38:04;10.07;;;4.97;;
3637;SDS011;1835;50.068;8.154;2022-11-11T11:40:43;9.03;;;4.60;;
3637;SDS011;1835;50.068;8.154;2022-11-11T11:43:24;8.40;;;4.30;;
3637;SDS011;1835;50.068;8.154;2022-11-11T11:45:59;7.97;;;4.93;;
3637;SDS011;1835;50.068;8.154;2022-11-11T11:48:35;14.13;;;6.10;;
3637;SDS011;1835;50.068;8.154;2022-11-11T11:51:28;7.80;;;5.20;;
3637;SDS011;1835;50.068;8.154;2022-11-11T11:54:09;9.50;;;5.33;;
3637;SDS011;1835;50.068;8.154;2022-11-11T11:56:48;12.37;;;6.20;;
3637;SDS011;1835;50.068;8.154;2022-11-11T11:59:21;13.20;;;5.40;;
3637;SDS011;1835;50.068;8.154;2022-11-11T12:02:02;12.43;;;5.20;;
3637;SDS011;1835;50.068;8.154;2022-11-11T12:04:57;16.30;;;5.90;;
3637;SDS011;1835;50.068;8.154;2022-11-11T12:07:54;11.23;;;5.97;;
3637;SDS011;1835;50.068;8.154;2022-11-11T12:10:38;14.50;;;6.53;;
3637;SDS011;1835;50.068;8.154;2022-11-11T12:13:17;22.83;;;5.70;;
3637;SDS011;1835;50.068;8.154;2022-11-11T12:15:58;18.13;;;6.93;;
3637;SDS011;1835;50.068;8.154;2022-11-11T12:18:50;13.50;;;6.30;;
3637;SDS011;1835;50.068;8.154;2022-11-11T12:21:38;10.40;;;6.80;;
3637;SDS011;1835;50.068;8.154;2022-11-11T12:24:18;150.00;;;10.77;;
3637;SDS011;1835;50.068;8.154;2022-11-11T12:27:04;33.43;;;8.27;;
3637;SDS011;1835;50.068;8.154;2022-11-11T12:29:45;20.77;;;7.40;;
3637;SDS011;1835;50.068;8.154;2022-11-11T12:32:30;28.30;;;7.33;;
3637;SDS011;1835;50.068;8.154;2022-11-11T12:41:12;27.07;;;9.20;;
3637;SDS011;1835;50.068;8.154;2022-11-11T12:43:53;18.13;;;8.40;;
3637;SDS011;1835;50.068;8.154;2022-11-11T12:46:32;96.43;;;11.00;;
3637;SDS011;1835;50.068;8.154;2022-11-11T12:49:33;21.07;;;9.97;;
3637;SDS011;1835;50.068;8.154;2022-11-11T12:52:16;23.70;;;10.80;;
3637;SDS011;1835;50.068;8.154;2022-11-11T12:54:59;33.93;;;9.17;;
3637;SDS011;1835;50.068;8.154;2022-11-11T12:57:50;52.03;;;8.50;;
3637;SDS011;1835;50.068;8.154;2022-11-11T13:00:35;37.17;;;9.53;;
3637;SDS011;1835;50.068;8.154;2022-11-11T13:03:17;31.97;;;11.40;;
3637;SDS011;1835;50.068;8.154;2022-11-11T13:06:03;26.90;;;10.90;;
3637;SDS011;1835;50.068;8.154;2022-11-11T13:08:45;27.57;;;10.87;;
3637;SDS011;1835;50.068;8.154;2022-11-11T13:11:35;36.80;;;12.00;;
3637;SDS011;1835;50.068;8.154;2022-11-11T13:14:19;37.90;;;14.37;;
3637;SDS011;1835;50.068;8.154;2022-11-11T13:17:10;26.57;;;13.10;;
3637;SDS011;1835;50.068;8.154;2022-11-11T13:19:40;26.60;;;12.30;;
3637;SDS011;1835;50.068;8.154;2022-11-11T13:22:14;26.70;;;12.27;;
3637;SDS011;1835;50.068;8.154;2022-11-11T13:24:48;41.10;;;12.73;;
3637;SDS011;1835;50.068;8.154;2022-11-11T13:27:25;34.27;;;13.97;;
3637;SDS011;1835;50.068;8.154;2022-11-11T13:30:03;26.93;;;11.27;;
3637;SDS011;1835;50.068;8.154;2022-11-11T13:33:11;20.33;;;10.03;;
3637;SDS011;1835;50.068;8.154;2022-11-11T13:35:51;23.83;;;11.47;;
3637;SDS011;1835;50.068;8.154;2022-11-11T13:38:22;25.70;;;11.10;;
3637;SDS011;1835;50.068;8.154;2022-11-11T13:40:57;32.70;;;12.63;;
3637;SDS011;1835;50.068;8.154;2022-11-11T13:43:30;24.17;;;11.67;;
3637;SDS011;1835;50.068;8.154;2022-11-11T13:46:03;31.40;;;13.50;;
3637;SDS011;1835;50.068;8.154;2022-11-11T13:48:34;38.80;;;15.23;;
3637;SDS011;1835;50.068;8.154;2022-11-11T13:51:13;45.10;;;18.00;;
3637;SDS011;1835;50.068;8.154;2022-11-11T13:53:50;47.17;;;17.60;;
3637;SDS011;1835;50.068;8.154;2022-11-11T13:56:21;39.90;;;16.63;;
3637;SDS011;1835;50.068;8.154;2022-11-11T13:58:53;38.70;;;17.27;;
3637;SDS011;1835;50.068;8.154;2022-11-11T14:01:22;45.83;;;18.73;;
3637;SDS011;1835;50.068;8.154;2022-11-11T14:03:59;54.57;;;18.00;;
3637;SDS011;1835;50.068;8.154;2022-11-11T14:12:35;35.10;;;14.63;;
3637;SDS011;1835;50.068;8.154;2022-11-11T14:18:31;40.83;;;15.80;;
3637;SDS011;1835;50.068;8.154;2022-11-11T14:21:07;29.30;;;12.87;;
3637;SDS011;1835;50.068;8.154;2022-11-11T14:23:36;26.40;;;12.33;;
3637;SDS011;1835;50.068;8.154;2022-11-11T14:26:26;27.63;;;11.70;;
3637;SDS011;1835;50.068;8.154;2022-11-11T14:28:58;36.23;;;12.70;;
3637;SDS011;1835;50.068;8.154;2022-11-11T14:34:47;32.00;;;13.50;;
3637;SDS011;1835;50.068;8.154;2022-11-11T14:37:29;39.87;;;13.80;;
3637;SDS011;1835;50.068;8.154;2022-11-11T14:40:22;50.33;;;16.03;;
3637;SDS011;1835;50.068;8.154;2022-11-11T14:42:52;39.17;;;14.40;;
3637;SDS011;1835;50.068;8.154;2022-11-11T14:57:23;32.53;;;12.50;;
3637;SDS011;1835;50.068;8.154;2022-11-11T14:59:55;39.97;;;12.73;;
3637;SDS011;1835;50.068;8.154;2022-11-11T15:02:25;41.27;;;14.90;;
3637;SDS011;1835;50.068;8.154;2022-11-11T15:04:58;40.53;;;12.93;;
3637;SDS011;1835;50.068;8.154;2022-11-11T15:07:30;30.13;;;14.17;;
3637;SDS011;1835;50.068;8.154;2022-11-11T15:10:27;41.70;;;12.07;;
3637;SDS011;1835;50.068;8.154;2022-11-11T15:13:27;48.10;;;12.73;;
3637;SDS011;1835;50.068;8.154;2022-11-11T15:16:50;65.23;;;13.50;;
3637;SDS011;1835;50.068;8.154;2022-11-11T15:19:32;57.07;;;12.47;;
3637;SDS011;1835;50.068;8.154;2022-11-11T15:22:18;27.17;;;11.93;;
3637;SDS011;1835;50.068;8.154;2022-11-11T15:25:10;42.80;;;11.60;;
3637;SDS011;1835;50.068;8.154;2022-11-11T15:27:57;164.60;;;16.83;;
3637;SDS011;1835;50.068;8.154;2022-11-11T15:30:40;42.77;;;13.20;;
3637;SDS011;1835;50.068;8.154;2022-11-11T15:33:32;28.57;;;11.97;;
3637;SDS011;1835;50.068;8.154;2022-11-11T15:36:12;41.07;;;16.37;;
3637;SDS011;1835;50.068;8.154;2022-11-11T15:38:51;66.57;;;22.80;;
3637;SDS011;1835;50.068;8.154;2022-11-11T15:41:20;69.03;;;16.57;;
3637;SDS011;1835;50.068;8.154;2022-11-11T15:44:01;88.93;;;16.70;;
3637;SDS011;1835;50.068;8.154;2022-11-11T15:46:35;87.37;;;16.87;;
3637;SDS011;1835;50.068;8.154;2022-11-11T15:49:11;369.20;;;22.60;;
3637;SDS011;1835;50.068;8.154;2022-11-11T15:51:41;111.57;;;17.13;;
3637;SDS011;1835;50.068;8.154;2022-11-11T15:54:18;68.70;;;14.90;;
3637;SDS011;1835;50.068;8.154;2022-11-11T15:56:48;244.57;;;18.20;;
3637;SDS011;1835;50.068;8.154;2022-11-11T15:59:20;136.23;;;18.30;;
3637;SDS011;1835;50.068;8.154;2022-11-11T16:01:50;104.33;;;17.40;;
3637;SDS011;1835;50.068;8.154;2022-11-11T16:04:20;131.17;;;13.50;;
3637;SDS011;1835;50.068;8.154;2022-11-11T16:07:15;167.10;;;15.63;;
3637;SDS011;1835;50.068;8.154;2022-11-11T16:09:46;83.23;;;13.57;;
3637;SDS011;1835;50.068;8.154;2022-11-11T16:12:16;79.87;;;13.87;;
3637;SDS011;1835;50.068;8.154;2022-11-11T16:14:50;50.77;;;13.20;;
3637;SDS011;1835;50.068;8.154;2022-11-11T16:17:21;146.73;;;15.00;;
3637;SDS011;1835;50.068;8.154;2022-11-11T16:19:58;98.03;;;13.70;;
3637;SDS011;1835;50.068;8.154;2022-11-11T16:22:33;72.27;;;13.70;;
3637;SDS011;1835;50.068;8.154;2022-11-11T16:25:04;67.40;;;12.47;;